Mediterranean — WDE2612 — position and weather

sailwx.info

Track history (hours):
 
Tides and Currents Weather Stations Pressure Air Temp Water Temp Dewpoint Dewpoint Depression Visibility Wind Speed Wind Dir Waves Ship Positions

Mediterranean

Owner: ADRIATIC MARINE, LLC, BELLE CHASSE, LA. More information available from US FCC via Universal Licensing System and Coast Guard Vessel Documentation Center.

Last reported at 2017-Nov-17 23:15 UTC. Time now 2017-Nov-18 23:27 UTC.
Position N 29°49' W 093°21'.

Length 50 m; draft 3.3 m.

Type: Cargo ship. MMSI: 367327360.

Date/timePositionNaut miles runAvg speedWind from/ knotsBaromVisibWave heightAir tempDewpointWater temp
2017-Nov-17 23:15N 29°49' W 093°21'0 1.8
2017-Nov-17 23:00N 29°49' W 093°20'0 0.0
2017-Nov-17 22:30N 29°49' W 093°20'0 0.0
2017-Nov-17 22:00N 29°49' W 093°20'1 1.6
2017-Nov-17 21:30N 29°49' W 093°21'10 0.3
2017-Nov-16 09:43N 29°39' W 093°20'3 9.6
2017-Nov-16 09:26N 29°41' W 093°20'4 9.4
2017-Nov-16 09:00N 29°45' W 093°21'3 5.6
2017-Nov-16 08:30N 29°48' W 093°21'1 2.4
2017-Nov-16 08:00N 29°49' W 093°20'0 0.0
2017-Nov-16 07:30N 29°49' W 093°20'0 0.0
2017-Nov-16 07:00N 29°49' W 093°20'0 0.0
2017-Nov-16 06:30N 29°49' W 093°20'0 0.0
2017-Nov-16 06:00N 29°49' W 093°20'0 0.0
2017-Nov-16 05:30N 29°49' W 093°20'0 0.0
2017-Nov-16 05:00N 29°49' W 093°20'0 0.6
2017-Nov-16 04:30N 29°49' W 093°21'3 5.5
2017-Nov-16 04:00N 29°46' W 093°21'4 8.6
2017-Nov-16 03:30N 29°42' W 093°20'  
2017-Nov-13 22:47N 29°49' W 093°20'0 0.0
2017-Nov-13 22:25N 29°49' W 093°20'0 0.0
2017-Nov-13 21:57N 29°49' W 093°20'  
Track history (hours):
 
Tides and Currents Weather Stations Pressure Air Temp Water Temp Dewpoint Dewpoint Depression Visibility Wind Speed Wind Dir Waves Ship Positions

Mediterranean

Owner: ADRIATIC MARINE, LLC, BELLE CHASSE, LA. More information available from US FCC via Universal Licensing System and Coast Guard Vessel Documentation Center.

Last reported at 2017-Nov-17 23:15 UTC. Time now 2017-Nov-18 23:27 UTC.
Position N 29°49' W 093°21'.

Length 50 m; draft 3.3 m.

Type: Cargo ship. MMSI: 367327360.

Date/timePositionNaut miles runAvg speedWind from/ knotsBaromVisibWave heightAir tempDewpointWater temp
2017-Nov-17 23:15N 29°49' W 093°21'0 1.8
2017-Nov-17 23:00N 29°49' W 093°20'0 0.0
2017-Nov-17 22:30N 29°49' W 093°20'0 0.0
2017-Nov-17 22:00N 29°49' W 093°20'1 1.6
2017-Nov-17 21:30N 29°49' W 093°21'10 0.3
2017-Nov-16 09:43N 29°39' W 093°20'3 9.6
2017-Nov-16 09:26N 29°41' W 093°20'4 9.4
2017-Nov-16 09:00N 29°45' W 093°21'3 5.6
2017-Nov-16 08:30N 29°48' W 093°21'1 2.4
2017-Nov-16 08:00N 29°49' W 093°20'0 0.0
2017-Nov-16 07:30N 29°49' W 093°20'0 0.0
2017-Nov-16 07:00N 29°49' W 093°20'0 0.0
2017-Nov-16 06:30N 29°49' W 093°20'0 0.0
2017-Nov-16 06:00N 29°49' W 093°20'0 0.0
2017-Nov-16 05:30N 29°49' W 093°20'0 0.0
2017-Nov-16 05:00N 29°49' W 093°20'0 0.6
2017-Nov-16 04:30N 29°49' W 093°21'3 5.5
2017-Nov-16 04:00N 29°46' W 093°21'4 8.6
2017-Nov-16 03:30N 29°42' W 093°20'  
2017-Nov-13 22:47N 29°49' W 093°20'0 0.0
2017-Nov-13 22:25N 29°49' W 093°20'0 0.0
2017-Nov-13 21:57N 29°49' W 093°20'  

Dump ship's entire track history